sensor_id;sensor_type;location;lat;lon;timestamp;pressure;altitude;pressure_sealevel;temperature;humidity
11830;BME280;5972;42.134;24.718;2023-03-22T00:00:43;99314.53;;;11.87;100.00
11830;BME280;5972;42.134;24.718;2023-03-22T00:03:10;99316.03;;;11.85;100.00
11830;BME280;5972;42.134;24.718;2023-03-22T00:05:37;99307.13;;;11.84;100.00
11830;BME280;5972;42.134;24.718;2023-03-22T00:08:06;99311.41;;;11.85;100.00
11830;BME280;5972;42.134;24.718;2023-03-22T00:10:35;99317.00;;;11.77;100.00
11830;BME280;5972;42.134;24.718;2023-03-22T00:13:02;99317.56;;;11.66;100.00
11830;BME280;5972;42.134;24.718;2023-03-22T00:15:30;99318.19;;;11.60;100.00
11830;BME280;5972;42.134;24.718;2023-03-22T00:17:57;99315.63;;;11.67;100.00
11830;BME280;5972;42.134;24.718;2023-03-22T00:20:24;99321.50;;;11.69;100.00
11830;BME280;5972;42.134;24.718;2023-03-22T00:22:54;99299.00;;;11.49;100.00
11830;BME280;5972;42.134;24.718;2023-03-22T00:25:23;99316.19;;;11.57;100.00
11830;BME280;5972;42.134;24.718;2023-03-22T00:27:49;99311.28;;;11.62;100.00
11830;BME280;5972;42.134;24.718;2023-03-22T00:30:16;99309.94;;;11.72;100.00
11830;BME280;5972;42.134;24.718;2023-03-22T00:32:44;99300.44;;;11.62;100.00
11830;BME280;5972;42.134;24.718;2023-03-22T00:35:11;99309.72;;;11.61;100.00
11830;BME280;5972;42.134;24.718;2023-03-22T00:37:38;99314.06;;;11.66;100.00
11830;BME280;5972;42.134;24.718;2023-03-22T00:40:06;99309.88;;;11.68;100.00
11830;BME280;5972;42.134;24.718;2023-03-22T00:42:35;99310.66;;;11.69;100.00
11830;BME280;5972;42.134;24.718;2023-03-22T00:45:04;99304.34;;;11.65;100.00
11830;BME280;5972;42.134;24.718;2023-03-22T00:47:31;99308.94;;;11.61;100.00
11830;BME280;5972;42.134;24.718;2023-03-22T00:49:58;99304.78;;;11.67;100.00
11830;BME280;5972;42.134;24.718;2023-03-22T00:52:26;99304.78;;;11.67;100.00
11830;BME280;5972;42.134;24.718;2023-03-22T00:54:53;99307.69;;;11.74;100.00
11830;BME280;5972;42.134;24.718;2023-03-22T00:57:20;99309.38;;;11.82;100.00
11830;BME280;5972;42.134;24.718;2023-03-22T00:59:49;99307.69;;;11.74;100.00
11830;BME280;5972;42.134;24.718;2023-03-22T01:02:18;99303.84;;;11.59;100.00
11830;BME280;5972;42.134;24.718;2023-03-22T01:04:45;99302.22;;;11.55;100.00
11830;BME280;5972;42.134;24.718;2023-03-22T01:07:14;99296.09;;;11.58;100.00
11830;BME280;5972;42.134;24.718;2023-03-22T01:09:43;99292.78;;;11.49;100.00
11830;BME280;5972;42.134;24.718;2023-03-22T01:12:10;99296.38;;;11.53;100.00
11830;BME280;5972;42.134;24.718;2023-03-22T01:14:38;99281.81;;;11.42;100.00
11830;BME280;5972;42.134;24.718;2023-03-22T01:17:07;99295.94;;;11.51;100.00
11830;BME280;5972;42.134;24.718;2023-03-22T01:19:45;99286.81;;;11.40;100.00
11830;BME280;5972;42.134;24.718;2023-03-22T01:22:12;99292.78;;;11.30;100.00
11830;BME280;5972;42.134;24.718;2023-03-22T01:24:39;99294.25;;;11.27;100.00
11830;BME280;5972;42.134;24.718;2023-03-22T01:27:06;99278.31;;;11.06;100.00
11830;BME280;5972;42.134;24.718;2023-03-22T01:29:52;99293.00;;;11.05;100.00
11830;BME280;5972;42.134;24.718;2023-03-22T01:32:21;99299.13;;;11.02;100.00
11830;BME280;5972;42.134;24.718;2023-03-22T01:34:48;99296.69;;;10.97;100.00
11830;BME280;5972;42.134;24.718;2023-03-22T01:37:15;99302.19;;;10.85;100.00
11830;BME280;5972;42.134;24.718;2023-03-22T01:39:41;99295.66;;;10.86;100.00
11830;BME280;5972;42.134;24.718;2023-03-22T01:42:11;99292.06;;;10.82;100.00
11830;BME280;5972;42.134;24.718;2023-03-22T01:44:41;99292.16;;;10.70;100.00
11830;BME280;5972;42.134;24.718;2023-03-22T01:47:09;99289.97;;;10.75;100.00
11830;BME280;5972;42.134;24.718;2023-03-22T01:49:38;99291.53;;;10.76;100.00
11830;BME280;5972;42.134;24.718;2023-03-22T01:52:09;99292.59;;;10.72;100.00
11830;BME280;5972;42.134;24.718;2023-03-22T01:54:39;99295.81;;;10.77;100.00
11830;BME280;5972;42.134;24.718;2023-03-22T01:57:08;99304.72;;;10.78;100.00
11830;BME280;5972;42.134;24.718;2023-03-22T01:59:35;99303.59;;;10.79;100.00
11830;BME280;5972;42.134;24.718;2023-03-22T02:02:02;99300.03;;;10.75;100.00
11830;BME280;5972;42.134;24.718;2023-03-22T02:04:32;99310.22;;;10.66;100.00
11830;BME280;5972;42.134;24.718;2023-03-22T02:07:04;99306.56;;;10.74;100.00
11830;BME280;5972;42.134;24.718;2023-03-22T02:09:35;99304.66;;;10.74;100.00
11830;BME280;5972;42.134;24.718;2023-03-22T02:12:14;99311.13;;;10.70;100.00
11830;BME280;5972;42.134;24.718;2023-03-22T02:14:54;99308.31;;;10.66;100.00
11830;BME280;5972;42.134;24.718;2023-03-22T02:17:28;99306.47;;;10.55;100.00
11830;BME280;5972;42.134;24.718;2023-03-22T02:20:23;99318.66;;;10.49;100.00
11830;BME280;5972;42.134;24.718;2023-03-22T02:23:19;99305.13;;;10.33;100.00
11830;BME280;5972;42.134;24.718;2023-03-22T02:28:48;99314.75;;;10.30;100.00
11830;BME280;5972;42.134;24.718;2023-03-22T02:31:27;99318.50;;;10.41;100.00
11830;BME280;5972;42.134;24.718;2023-03-22T02:34:08;99314.75;;;10.46;100.00
11830;BME280;5972;42.134;24.718;2023-03-22T02:39:50;99314.81;;;10.34;100.00
11830;BME280;5972;42.134;24.718;2023-03-22T02:42:30;99314.38;;;10.32;100.00
11830;BME280;5972;42.134;24.718;2023-03-22T02:45:07;99320.84;;;10.43;100.00
11830;BME280;5972;42.134;24.718;2023-03-22T02:47:39;99300.69;;;10.25;100.00
11830;BME280;5972;42.134;24.718;2023-03-22T02:50:14;99325.03;;;10.40;100.00
11830;BME280;5972;42.134;24.718;2023-03-22T02:52:48;99330.00;;;10.38;100.00
11830;BME280;5972;42.134;24.718;2023-03-22T02:55:23;99322.47;;;10.32;100.00
11830;BME280;5972;42.134;24.718;2023-03-22T02:57:54;99340.75;;;10.35;100.00
11830;BME280;5972;42.134;24.718;2023-03-22T03:00:24;99340.03;;;10.38;100.00
11830;BME280;5972;42.134;24.718;2023-03-22T03:02:57;99330.34;;;10.37;100.00
11830;BME280;5972;42.134;24.718;2023-03-22T03:05:27;99332.19;;;10.49;100.00
11830;BME280;5972;42.134;24.718;2023-03-22T03:07:59;99342.00;;;10.53;100.00
11830;BME280;5972;42.134;24.718;2023-03-22T03:10:31;99346.97;;;10.51;100.00
11830;BME280;5972;42.134;24.718;2023-03-22T03:12:58;99348.94;;;10.54;100.00
11830;BME280;5972;42.134;24.718;2023-03-22T03:15:25;99346.09;;;10.63;100.00
11830;BME280;5972;42.134;24.718;2023-03-22T03:18:07;99344.19;;;10.63;100.00
11830;BME280;5972;42.134;24.718;2023-03-22T03:20:44;99353.50;;;10.66;100.00
11830;BME280;5972;42.134;24.718;2023-03-22T03:23:25;99353.16;;;10.67;100.00
11830;BME280;5972;42.134;24.718;2023-03-22T03:26:00;99353.25;;;10.71;100.00
11830;BME280;5972;42.134;24.718;2023-03-22T03:28:35;99355.16;;;10.70;100.00
11830;BME280;5972;42.134;24.718;2023-03-22T03:31:15;99352.72;;;10.65;100.00
11830;BME280;5972;42.134;24.718;2023-03-22T03:33:51;99348.00;;;10.62;100.00
11830;BME280;5972;42.134;24.718;2023-03-22T03:36:22;99349.06;;;10.58;100.00
11830;BME280;5972;42.134;24.718;2023-03-22T03:38:52;99341.09;;;10.49;100.00
11830;BME280;5972;42.134;24.718;2023-03-22T03:41:23;99355.94;;;10.55;100.00
11830;BME280;5972;42.134;24.718;2023-03-22T03:43:52;99340.81;;;10.38;100.00
11830;BME280;5972;42.134;24.718;2023-03-22T03:46:20;99348.41;;;10.49;100.00
11830;BME280;5972;42.134;24.718;2023-03-22T03:48:50;99357.25;;;10.46;100.00
11830;BME280;5972;42.134;24.718;2023-03-22T03:51:18;99359.75;;;10.38;100.00
11830;BME280;5972;42.134;24.718;2023-03-22T03:53:45;99368.13;;;10.33;100.00
11830;BME280;5972;42.134;24.718;2023-03-22T03:56:12;99365.41;;;10.33;100.00
11830;BME280;5972;42.134;24.718;2023-03-22T03:58:40;99352.22;;;10.32;100.00
11830;BME280;5972;42.134;24.718;2023-03-22T04:01:07;99357.63;;;10.32;100.00
11830;BME280;5972;42.134;24.718;2023-03-22T04:03:33;99363.03;;;10.32;100.00
11830;BME280;5972;42.134;24.718;2023-03-22T04:06:00;99356.75;;;10.28;100.00
11830;BME280;5972;42.134;24.718;2023-03-22T04:08:28;99363.16;;;10.35;100.00
11830;BME280;5972;42.134;24.718;2023-03-22T04:10:55;99361.38;;;10.27;100.00
11830;BME280;5972;42.134;24.718;2023-03-22T04:13:22;99376.22;;;10.33;100.00
11830;BME280;5972;42.134;24.718;2023-03-22T04:15:53;99365.22;;;10.26;100.00
11830;BME280;5972;42.134;24.718;2023-03-22T04:18:21;99379.53;;;10.27;100.00
11830;BME280;5972;42.134;24.718;2023-03-22T04:20:48;99378.97;;;10.21;100.00
11830;BME280;5972;42.134;24.718;2023-03-22T04:23:18;99366.31;;;9.97;100.00
11830;BME280;5972;42.134;24.718;2023-03-22T04:25:47;99380.91;;;10.09;100.00
11830;BME280;5972;42.134;24.718;2023-03-22T04:28:15;99390.59;;;10.22;100.00
11830;BME280;5972;42.134;24.718;2023-03-22T04:30:44;99397.88;;;10.33;100.00
11830;BME280;5972;42.134;24.718;2023-03-22T04:33:17;99400.56;;;10.33;100.00
11830;BME280;5972;42.134;24.718;2023-03-22T04:35:44;99401.03;;;10.35;100.00
11830;BME280;5972;42.134;24.718;2023-03-22T04:38:11;99404.53;;;10.36;100.00
11830;BME280;5972;42.134;24.718;2023-03-22T04:40:39;99401.56;;;10.41;100.00
11830;BME280;5972;42.134;24.718;2023-03-22T04:43:12;99400.53;;;10.46;100.00
11830;BME280;5972;42.134;24.718;2023-03-22T04:45:40;99410.88;;;10.43;100.00
11830;BME280;5972;42.134;24.718;2023-03-22T04:48:08;99409.97;;;10.52;100.00
11830;BME280;5972;42.134;24.718;2023-03-22T04:50:37;99405.22;;;10.49;100.00
11830;BME280;5972;42.134;24.718;2023-03-22T04:53:05;99408.91;;;10.56;100.00
11830;BME280;5972;42.134;24.718;2023-03-22T04:55:32;99393.19;;;10.46;100.00
11830;BME280;5972;42.134;24.718;2023-03-22T04:57:59;99420.47;;;10.69;100.00
11830;BME280;5972;42.134;24.718;2023-03-22T05:00:26;99422.72;;;10.67;100.00
11830;BME280;5972;42.134;24.718;2023-03-22T05:02:55;99416.22;;;10.83;100.00
11830;BME280;5972;42.134;24.718;2023-03-22T05:05:21;99405.22;;;10.92;100.00
11830;BME280;5972;42.134;24.718;2023-03-22T05:07:50;99424.78;;;11.01;100.00
11830;BME280;5972;42.134;24.718;2023-03-22T05:10:16;99422.63;;;11.07;100.00
11830;BME280;5972;42.134;24.718;2023-03-22T05:12:43;99420.09;;;11.14;100.00
11830;BME280;5972;42.134;24.718;2023-03-22T05:15:10;99423.66;;;11.18;100.00
11830;BME280;5972;42.134;24.718;2023-03-22T05:17:37;99422.44;;;11.31;100.00
11830;BME280;5972;42.134;24.718;2023-03-22T05:20:05;99410.09;;;11.34;100.00
11830;BME280;5972;42.134;24.718;2023-03-22T05:22:34;99431.41;;;11.51;100.00
11830;BME280;5972;42.134;24.718;2023-03-22T05:25:07;99416.91;;;11.43;100.00
11830;BME280;5972;42.134;24.718;2023-03-22T05:27:34;99433.50;;;11.57;100.00
11830;BME280;5972;42.134;24.718;2023-03-22T05:30:04;99433.50;;;11.57;100.00
11830;BME280;5972;42.134;24.718;2023-03-22T05:32:31;99448.25;;;11.60;100.00
11830;BME280;5972;42.134;24.718;2023-03-22T05:34:58;99445.03;;;11.70;100.00
11830;BME280;5972;42.134;24.718;2023-03-22T05:37:29;99451.66;;;11.73;100.00
11830;BME280;5972;42.134;24.718;2023-03-22T05:39:55;99451.75;;;11.76;100.00
11830;BME280;5972;42.134;24.718;2023-03-22T05:42:24;99449.66;;;11.85;100.00
11830;BME280;5972;42.134;24.718;2023-03-22T05:44:50;99457.59;;;11.94;100.00
11830;BME280;5972;42.134;24.718;2023-03-22T05:47:17;99459.09;;;11.91;100.00
11830;BME280;5972;42.134;24.718;2023-03-22T05:49:44;99464.13;;;11.93;100.00
11830;BME280;5972;42.134;24.718;2023-03-22T05:52:11;99466.94;;;11.96;100.00
11830;BME280;5972;42.134;24.718;2023-03-22T05:54:38;99472.38;;;11.96;100.00
11830;BME280;5972;42.134;24.718;2023-03-22T05:57:05;99473.16;;;11.97;100.00
11830;BME280;5972;42.134;24.718;2023-03-22T05:59:33;99483.09;;;12.08;100.00
11830;BME280;5972;42.134;24.718;2023-03-22T06:02:00;99475.47;;;12.14;100.00
11830;BME280;5972;42.134;24.718;2023-03-22T06:04:27;99490.19;;;12.13;100.00
11830;BME280;5972;42.134;24.718;2023-03-22T06:06:54;99483.44;;;12.07;100.00
11830;BME280;5972;42.134;24.718;2023-03-22T06:09:21;99476.50;;;12.09;100.00
11830;BME280;5972;42.134;24.718;2023-03-22T06:11:48;99471.47;;;12.08;100.00
11830;BME280;5972;42.134;24.718;2023-03-22T06:14:15;99482.31;;;12.08;100.00
11830;BME280;5972;42.134;24.718;2023-03-22T06:16:43;99492.53;;;12.15;100.00
11830;BME280;5972;42.134;24.718;2023-03-22T06:19:10;99496.34;;;11.94;100.00
11830;BME280;5972;42.134;24.718;2023-03-22T06:21:37;99501.19;;;12.04;100.00
11830;BME280;5972;42.134;24.718;2023-03-22T06:24:04;99491.41;;;12.00;100.00
11830;BME280;5972;42.134;24.718;2023-03-22T06:26:31;99502.78;;;12.05;100.00
11830;BME280;5972;42.134;24.718;2023-03-22T06:28:58;99510.75;;;12.14;100.00
11830;BME280;5972;42.134;24.718;2023-03-22T06:31:27;99524.91;;;12.07;100.00
11830;BME280;5972;42.134;24.718;2023-03-22T06:33:55;99517.63;;;12.12;100.00
11830;BME280;5972;42.134;24.718;2023-03-22T06:36:22;99517.03;;;12.18;100.00
11830;BME280;5972;42.134;24.718;2023-03-22T06:38:49;99520.19;;;12.04;100.00
11830;BME280;5972;42.134;24.718;2023-03-22T06:41:16;99530.84;;;12.13;100.00
11830;BME280;5972;42.134;24.718;2023-03-22T06:43:42;99534.25;;;12.10;100.00
11830;BME280;5972;42.134;24.718;2023-03-22T06:46:09;99538.25;;;11.97;100.00
11830;BME280;5972;42.134;24.718;2023-03-22T06:48:36;99543.81;;;11.88;100.00
11830;BME280;5972;42.134;24.718;2023-03-22T06:51:05;99541.38;;;11.83;100.00
11830;BME280;5972;42.134;24.718;2023-03-22T06:53:32;99540.06;;;11.77;100.00
11830;BME280;5972;42.134;24.718;2023-03-22T06:55:59;99547.06;;;11.78;100.00
11830;BME280;5972;42.134;24.718;2023-03-22T06:58:26;99502.19;;;11.65;100.00
11830;BME280;5972;42.134;24.718;2023-03-22T07:00:54;99539.03;;;11.97;100.00
11830;BME280;5972;42.134;24.718;2023-03-22T07:03:21;99543.47;;;12.05;100.00
11830;BME280;5972;42.134;24.718;2023-03-22T07:05:48;99539.53;;;12.03;100.00
11830;BME280;5972;42.134;24.718;2023-03-22T07:08:16;99544.06;;;12.15;100.00
11830;BME280;5972;42.134;24.718;2023-03-22T07:10:48;99545.34;;;12.21;100.00
11830;BME280;5972;42.134;24.718;2023-03-22T07:13:14;99541.22;;;12.27;100.00
11830;BME280;5972;42.134;24.718;2023-03-22T07:15:41;99538.59;;;12.30;100.00
11830;BME280;5972;42.134;24.718;2023-03-22T07:18:08;99529.59;;;12.26;100.00
11830;BME280;5972;42.134;24.718;2023-03-22T07:20:35;99538.94;;;12.29;100.00
11830;BME280;5972;42.134;24.718;2023-03-22T07:23:05;99528.53;;;12.31;100.00
11830;BME280;5972;42.134;24.718;2023-03-22T07:25:33;99518.81;;;12.30;100.00
11830;BME280;5972;42.134;24.718;2023-03-22T07:28:00;99510.75;;;12.33;100.00
11830;BME280;5972;42.134;24.718;2023-03-22T07:30:27;99506.91;;;12.34;100.00
11830;BME280;5972;42.134;24.718;2023-03-22T07:32:54;99509.41;;;12.24;100.00
11830;BME280;5972;42.134;24.718;2023-03-22T07:35:20;99507.22;;;12.14;100.00
11830;BME280;5972;42.134;24.718;2023-03-22T07:37:47;99504.81;;;12.08;100.00
11830;BME280;5972;42.134;24.718;2023-03-22T07:40:14;99497.75;;;12.23;100.00
11830;BME280;5972;42.134;24.718;2023-03-22T07:42:42;99521.03;;;12.43;100.00
11830;BME280;5972;42.134;24.718;2023-03-22T07:45:10;99520.69;;;12.45;100.00
11830;BME280;5972;42.134;24.718;2023-03-22T07:47:36;99531.06;;;12.59;100.00
11830;BME280;5972;42.134;24.718;2023-03-22T07:50:04;99555.13;;;12.60;100.00
11830;BME280;5972;42.134;24.718;2023-03-22T07:52:31;99557.34;;;12.55;100.00
11830;BME280;5972;42.134;24.718;2023-03-22T07:54:58;99556.69;;;12.61;100.00
11830;BME280;5972;42.134;24.718;2023-03-22T07:57:24;99575.63;;;12.58;100.00
11830;BME280;5972;42.134;24.718;2023-03-22T07:59:53;99576.09;;;12.44;100.00
11830;BME280;5972;42.134;24.718;2023-03-22T08:02:20;99566.13;;;12.48;100.00
11830;BME280;5972;42.134;24.718;2023-03-22T08:04:47;99574.91;;;12.61;100.00
11830;BME280;5972;42.134;24.718;2023-03-22T08:07:15;99563.63;;;12.78;100.00
11830;BME280;5972;42.134;24.718;2023-03-22T08:09:43;99540.63;;;12.53;100.00
11830;BME280;5972;42.134;24.718;2023-03-22T08:12:10;99563.50;;;12.90;100.00
11830;BME280;5972;42.134;24.718;2023-03-22T08:14:37;99563.25;;;13.14;100.00
11830;BME280;5972;42.134;24.718;2023-03-22T08:17:06;99562.66;;;13.24;100.00
11830;BME280;5972;42.134;24.718;2023-03-22T08:19:33;99532.75;;;13.24;100.00
11830;BME280;5972;42.134;24.718;2023-03-22T08:22:00;99575.06;;;13.67;100.00
11830;BME280;5972;42.134;24.718;2023-03-22T08:24:28;99580.31;;;13.57;100.00
11830;BME280;5972;42.134;24.718;2023-03-22T08:26:54;99586.75;;;13.26;100.00
11830;BME280;5972;42.134;24.718;2023-03-22T08:29:22;99583.06;;;12.99;100.00
11830;BME280;5972;42.134;24.718;2023-03-22T08:31:49;99586.00;;;12.71;100.00
11830;BME280;5972;42.134;24.718;2023-03-22T08:34:17;99591.56;;;12.59;100.00
11830;BME280;5972;42.134;24.718;2023-03-22T08:36:44;99595.06;;;12.60;100.00
11830;BME280;5972;42.134;24.718;2023-03-22T08:39:12;99595.44;;;12.58;100.00
11830;BME280;5972;42.134;24.718;2023-03-22T08:41:39;99598.56;;;12.60;100.00
11830;BME280;5972;42.134;24.718;2023-03-22T08:44:05;99596.06;;;12.71;100.00
11830;BME280;5972;42.134;24.718;2023-03-22T08:46:32;99598.53;;;12.76;100.00
11830;BME280;5972;42.134;24.718;2023-03-22T08:48:59;99601.25;;;12.76;100.00
11830;BME280;5972;42.134;24.718;2023-03-22T08:51:28;99597.34;;;12.58;100.00
11830;BME280;5972;42.134;24.718;2023-03-22T08:53:55;99586.50;;;12.77;100.00
11830;BME280;5972;42.134;24.718;2023-03-22T08:56:25;99584.78;;;12.88;100.00
11830;BME280;5972;42.134;24.718;2023-03-22T08:58:53;99585.81;;;13.18;100.00
11830;BME280;5972;42.134;24.718;2023-03-22T09:01:20;99584.69;;;13.19;100.00
11830;BME280;5972;42.134;24.718;2023-03-22T09:03:46;99589.25;;;13.15;100.00
11830;BME280;5972;42.134;24.718;2023-03-22T09:06:13;99592.19;;;13.49;100.00
11830;BME280;5972;42.134;24.718;2023-03-22T09:08:42;99588.16;;;13.01;100.00
11830;BME280;5972;42.134;24.718;2023-03-22T09:11:09;99562.97;;;12.65;100.00
11830;BME280;5972;42.134;24.718;2023-03-22T09:13:37;99552.50;;;12.83;100.00
11830;BME280;5972;42.134;24.718;2023-03-22T09:16:05;99588.09;;;13.36;100.00
11830;BME280;5972;42.134;24.718;2023-03-22T09:18:33;99579.03;;;13.51;100.00
11830;BME280;5972;42.134;24.718;2023-03-22T09:21:00;99585.97;;;13.94;100.00
11830;BME280;5972;42.134;24.718;2023-03-22T09:23:27;99589.78;;;14.12;100.00
11830;BME280;5972;42.134;24.718;2023-03-22T09:25:58;99601.63;;;14.00;100.00
11830;BME280;5972;42.134;24.718;2023-03-22T09:28:25;99592.69;;;13.77;100.00
11830;BME280;5972;42.134;24.718;2023-03-22T09:30:52;99580.94;;;13.69;100.00
11830;BME280;5972;42.134;24.718;2023-03-22T09:33:19;99585.63;;;13.50;100.00
11830;BME280;5972;42.134;24.718;2023-03-22T09:35:46;99595.00;;;13.75;100.00
11830;BME280;5972;42.134;24.718;2023-03-22T09:38:13;99571.50;;;13.86;100.00
11830;BME280;5972;42.134;24.718;2023-03-22T09:40:48;99569.00;;;14.00;100.00
11830;BME280;5972;42.134;24.718;2023-03-22T09:43:18;99598.09;;;14.23;100.00
11830;BME280;5972;42.134;24.718;2023-03-22T09:45:47;99588.13;;;14.56;100.00
11830;BME280;5972;42.134;24.718;2023-03-22T09:48:18;99568.16;;;14.49;100.00
11830;BME280;5972;42.134;24.718;2023-03-22T09:50:47;99579.28;;;14.63;100.00
11830;BME280;5972;42.134;24.718;2023-03-22T09:53:16;99578.59;;;14.70;100.00
11830;BME280;5972;42.134;24.718;2023-03-22T09:55:46;99570.38;;;14.99;100.00
11830;BME280;5972;42.134;24.718;2023-03-22T09:58:23;99572.47;;;15.13;100.00
11830;BME280;5972;42.134;24.718;2023-03-22T10:00:56;99570.31;;;15.29;100.00
11830;BME280;5972;42.134;24.718;2023-03-22T10:03:46;99569.69;;;15.43;100.00
11830;BME280;5972;42.134;24.718;2023-03-22T10:06:20;99535.19;;;15.21;100.00
11830;BME280;5972;42.134;24.718;2023-03-22T10:08:54;99581.53;;;15.58;100.00
11830;BME280;5972;42.134;24.718;2023-03-22T10:11:36;99579.38;;;15.77;100.00
11830;BME280;5972;42.134;24.718;2023-03-22T10:14:15;99582.22;;;15.88;100.00
11830;BME280;5972;42.134;24.718;2023-03-22T10:16:48;99573.75;;;16.04;100.00
11830;BME280;5972;42.134;24.718;2023-03-22T10:19:20;99573.84;;;16.14;100.00
11830;BME280;5972;42.134;24.718;2023-03-22T10:21:50;99550.00;;;16.08;100.00
11830;BME280;5972;42.134;24.718;2023-03-22T10:24:22;99544.88;;;15.99;100.00
11830;BME280;5972;42.134;24.718;2023-03-22T10:26:50;99575.13;;;16.31;100.00
11830;BME280;5972;42.134;24.718;2023-03-22T10:29:22;99577.06;;;16.31;100.00
11830;BME280;5972;42.134;24.718;2023-03-22T10:31:49;99578.88;;;16.12;100.00
11830;BME280;5972;42.134;24.718;2023-03-22T10:34:20;99582.22;;;16.43;100.00
11830;BME280;5972;42.134;24.718;2023-03-22T10:36:49;99580.34;;;16.54;100.00
11830;BME280;5972;42.134;24.718;2023-03-22T10:39:26;99572.28;;;16.75;100.00
11830;BME280;5972;42.134;24.718;2023-03-22T10:41:54;99579.75;;;16.96;100.00
11830;BME280;5972;42.134;24.718;2023-03-22T10:44:25;99576.72;;;17.19;100.00
11830;BME280;5972;42.134;24.718;2023-03-22T10:46:55;99554.81;;;17.12;100.00
11830;BME280;5972;42.134;24.718;2023-03-22T10:49:25;99572.06;;;17.30;100.00
11830;BME280;5972;42.134;24.718;2023-03-22T10:51:58;99561.16;;;17.48;100.00
11830;BME280;5972;42.134;24.718;2023-03-22T10:54:28;99571.00;;;17.66;100.00
11830;BME280;5972;42.134;24.718;2023-03-22T10:56:55;99524.81;;;17.43;100.00
11830;BME280;5972;42.134;24.718;2023-03-22T10:59:44;99556.91;;;17.68;100.00
11830;BME280;5972;42.134;24.718;2023-03-22T11:02:20;99557.69;;;17.68;100.00
11830;BME280;5972;42.134;24.718;2023-03-22T11:04:48;99562.78;;;17.73;100.00
11830;BME280;5972;42.134;24.718;2023-03-22T11:07:25;99552.22;;;17.65;100.00
11830;BME280;5972;42.134;24.718;2023-03-22T11:12:42;99553.34;;;17.53;97.12
11830;BME280;5972;42.134;24.718;2023-03-22T11:15:22;99502.88;;;17.22;99.34
11830;BME280;5972;42.134;24.718;2023-03-22T11:17:49;99531.84;;;17.37;100.00
11830;BME280;5972;42.134;24.718;2023-03-22T11:20:18;99547.09;;;17.38;100.00
11830;BME280;5972;42.134;24.718;2023-03-22T11:22:46;99543.16;;;17.29;100.00
11830;BME280;5972;42.134;24.718;2023-03-22T11:25:16;99542.41;;;17.53;100.00
11830;BME280;5972;42.134;24.718;2023-03-22T11:27:53;99533.03;;;17.54;100.00
11830;BME280;5972;42.134;24.718;2023-03-22T11:30:25;99525.22;;;17.49;99.64
11830;BME280;5972;42.134;24.718;2023-03-22T11:33:00;99541.28;;;17.72;92.33
11830;BME280;5972;42.134;24.718;2023-03-22T11:35:29;99530.31;;;17.79;92.70
11830;BME280;5972;42.134;24.718;2023-03-22T11:37:56;99526.81;;;17.71;94.55
11830;BME280;5972;42.134;24.718;2023-03-22T11:40:28;99534.63;;;17.87;93.21
11830;BME280;5972;42.134;24.718;2023-03-22T11:43:02;99539.69;;;17.96;91.98
11830;BME280;5972;42.134;24.718;2023-03-22T11:45:43;99530.69;;;18.20;84.10
11830;BME280;5972;42.134;24.718;2023-03-22T11:48:14;99522.06;;;18.25;84.97
11830;BME280;5972;42.134;24.718;2023-03-22T11:50:43;99520.91;;;18.15;88.95
11830;BME280;5972;42.134;24.718;2023-03-22T11:53:13;99518.88;;;18.34;83.94
11830;BME280;5972;42.134;24.718;2023-03-22T11:55:42;99523.97;;;18.42;80.04
11830;BME280;5972;42.134;24.718;2023-03-22T11:58:23;99515.00;;;18.17;77.54
11830;BME280;5972;42.134;24.718;2023-03-22T12:00:55;99522.47;;;18.16;80.10
11830;BME280;5972;42.134;24.718;2023-03-22T12:03:26;99518.59;;;17.64;89.53
11830;BME280;5972;42.134;24.718;2023-03-22T12:05:57;99504.13;;;17.74;83.96
11830;BME280;5972;42.134;24.718;2023-03-22T12:08:36;99524.84;;;17.86;86.08
11830;BME280;5972;42.134;24.718;2023-03-22T12:11:07;99529.16;;;17.80;85.98
11830;BME280;5972;42.134;24.718;2023-03-22T12:13:42;99529.13;;;17.48;85.63
11830;BME280;5972;42.134;24.718;2023-03-22T12:16:14;99518.22;;;17.69;80.82
11830;BME280;5972;42.134;24.718;2023-03-22T12:18:47;99524.44;;;17.91;75.05
11830;BME280;5972;42.134;24.718;2023-03-22T12:21:16;99522.91;;;17.94;69.05
11830;BME280;5972;42.134;24.718;2023-03-22T12:23:44;99524.84;;;17.90;71.54
11830;BME280;5972;42.134;24.718;2023-03-22T12:26:14;99523.66;;;17.98;76.69
11830;BME280;5972;42.134;24.718;2023-03-22T12:28:52;99523.66;;;17.59;83.73
11830;BME280;5972;42.134;24.718;2023-03-22T12:31:23;99516.63;;;17.90;82.32
11830;BME280;5972;42.134;24.718;2023-03-22T12:33:54;99516.22;;;17.59;84.59
11830;BME280;5972;42.134;24.718;2023-03-22T12:36:36;99508.03;;;17.63;87.55
11830;BME280;5972;42.134;24.718;2023-03-22T12:39:11;99511.53;;;17.56;80.70
11830;BME280;5972;42.134;24.718;2023-03-22T12:41:41;99520.56;;;17.74;79.03
11830;BME280;5972;42.134;24.718;2023-03-22T12:44:24;99515.88;;;17.75;73.77
11830;BME280;5972;42.134;24.718;2023-03-22T12:46:56;99522.91;;;17.76;71.38
11830;BME280;5972;42.134;24.718;2023-03-22T12:49:27;99514.69;;;17.69;69.55
11830;BME280;5972;42.134;24.718;2023-03-22T12:52:04;99517.41;;;17.86;72.21
11830;BME280;5972;42.134;24.718;2023-03-22T12:54:36;99515.84;;;17.68;69.49
11830;BME280;5972;42.134;24.718;2023-03-22T12:57:04;99504.13;;;17.74;63.09
11830;BME280;5972;42.134;24.718;2023-03-22T12:59:31;99517.03;;;17.92;65.31
11830;BME280;5972;42.134;24.718;2023-03-22T13:02:05;99511.91;;;18.08;64.96
11830;BME280;5972;42.134;24.718;2023-03-22T13:04:52;99506.78;;;18.24;59.52
11830;BME280;5972;42.134;24.718;2023-03-22T13:07:36;99467.34;;;18.04;59.75
11830;BME280;5972;42.134;24.718;2023-03-22T13:10:37;99507.09;;;18.61;60.27
11830;BME280;5972;42.134;24.718;2023-03-22T13:13:12;99510.16;;;18.81;57.44